sensor_id;sensor_type;location;lat;lon;timestamp;temperature;humidity
38209;DHT22;24016;52.102;11.584;2022-11-21T00:00:15;-1.40;99.90
38209;DHT22;24016;52.102;11.584;2022-11-21T00:02:40;-1.50;99.90
38209;DHT22;24016;52.102;11.584;2022-11-21T00:05:06;-1.50;99.90
38209;DHT22;24016;52.102;11.584;2022-11-21T00:07:32;-1.50;99.90
38209;DHT22;24016;52.102;11.584;2022-11-21T00:09:57;-1.40;99.90
38209;DHT22;24016;52.102;11.584;2022-11-21T00:12:23;-1.40;99.90
38209;DHT22;24016;52.102;11.584;2022-11-21T00:14:48;-1.40;99.90
38209;DHT22;24016;52.102;11.584;2022-11-21T00:17:14;-1.40;99.90
38209;DHT22;24016;52.102;11.584;2022-11-21T00:19:40;-1.40;99.90
38209;DHT22;24016;52.102;11.584;2022-11-21T00:22:05;-1.40;99.90
38209;DHT22;24016;52.102;11.584;2022-11-21T00:24:31;-1.40;99.90
38209;DHT22;24016;52.102;11.584;2022-11-21T00:26:56;-1.40;99.90
38209;DHT22;24016;52.102;11.584;2022-11-21T00:29:22;-1.40;99.90
38209;DHT22;24016;52.102;11.584;2022-11-21T00:31:47;-1.40;99.90
38209;DHT22;24016;52.102;11.584;2022-11-21T00:34:13;-1.40;99.90
38209;DHT22;24016;52.102;11.584;2022-11-21T00:36:40;-1.40;99.90
38209;DHT22;24016;52.102;11.584;2022-11-21T00:39:05;-1.40;99.90
38209;DHT22;24016;52.102;11.584;2022-11-21T00:41:31;-1.40;99.90
38209;DHT22;24016;52.102;11.584;2022-11-21T00:43:56;-1.40;99.90
38209;DHT22;24016;52.102;11.584;2022-11-21T00:46:22;-1.40;99.90
38209;DHT22;24016;52.102;11.584;2022-11-21T00:48:47;-1.40;99.90
38209;DHT22;24016;52.102;11.584;2022-11-21T00:51:13;-1.40;99.90
38209;DHT22;24016;52.102;11.584;2022-11-21T00:53:38;-1.40;99.90
38209;DHT22;24016;52.102;11.584;2022-11-21T00:56:04;-1.40;99.90
38209;DHT22;24016;52.102;11.584;2022-11-21T00:58:30;-1.30;99.90
38209;DHT22;24016;52.102;11.584;2022-11-21T01:01:04;-1.40;99.90
38209;DHT22;24016;52.102;11.584;2022-11-21T01:03:31;-1.40;99.90
38209;DHT22;24016;52.102;11.584;2022-11-21T01:06:06;-1.40;99.90
38209;DHT22;24016;52.102;11.584;2022-11-21T01:08:34;-1.40;99.90
38209;DHT22;24016;52.102;11.584;2022-11-21T01:11:05;-1.40;99.90
38209;DHT22;24016;52.102;11.584;2022-11-21T01:13:31;-1.40;99.90
38209;DHT22;24016;52.102;11.584;2022-11-21T01:16:11;-1.40;99.90
38209;DHT22;24016;52.102;11.584;2022-11-21T01:18:38;-1.40;99.90
38209;DHT22;24016;52.102;11.584;2022-11-21T01:21:06;-1.30;99.90
38209;DHT22;24016;52.102;11.584;2022-11-21T01:23:32;-1.30;99.90
38209;DHT22;24016;52.102;11.584;2022-11-21T01:26:05;-1.40;99.90
38209;DHT22;24016;52.102;11.584;2022-11-21T01:28:31;-1.40;99.90
38209;DHT22;24016;52.102;11.584;2022-11-21T01:31:19;-1.40;99.90
38209;DHT22;24016;52.102;11.584;2022-11-21T01:33:45;-1.40;99.90
38209;DHT22;24016;52.102;11.584;2022-11-21T01:38:39;-1.40;99.90
38209;DHT22;24016;52.102;11.584;2022-11-21T01:41:06;-1.40;99.90
38209;DHT22;24016;52.102;11.584;2022-11-21T01:43:32;-1.40;99.90
38209;DHT22;24016;52.102;11.584;2022-11-21T01:46:09;-1.40;99.90
38209;DHT22;24016;52.102;11.584;2022-11-21T01:53:40;-1.40;99.90
38209;DHT22;24016;52.102;11.584;2022-11-21T01:56:07;-1.40;99.90
38209;DHT22;24016;52.102;11.584;2022-11-21T01:58:34;-1.40;99.90
38209;DHT22;24016;52.102;11.584;2022-11-21T02:01:00;-1.50;99.90
38209;DHT22;24016;52.102;11.584;2022-11-21T02:03:28;-1.40;99.90
38209;DHT22;24016;52.102;11.584;2022-11-21T02:05:55;-1.50;99.90
38209;DHT22;24016;52.102;11.584;2022-11-21T02:08:22;-1.50;99.90
38209;DHT22;24016;52.102;11.584;2022-11-21T02:11:05;-1.40;99.90
38209;DHT22;24016;52.102;11.584;2022-11-21T02:13:32;-1.40;99.90
38209;DHT22;24016;52.102;11.584;2022-11-21T02:15:58;-1.40;99.90
38209;DHT22;24016;52.102;11.584;2022-11-21T02:18:24;-1.40;99.90
38209;DHT22;24016;52.102;11.584;2022-11-21T02:20:53;-1.40;99.90
38209;DHT22;24016;52.102;11.584;2022-11-21T02:23:31;-1.40;99.90
38209;DHT22;24016;52.102;11.584;2022-11-21T02:25:59;-1.40;99.90
38209;DHT22;24016;52.102;11.584;2022-11-21T02:28:24;-1.40;99.90
38209;DHT22;24016;52.102;11.584;2022-11-21T02:33:26;-1.50;99.90
38209;DHT22;24016;52.102;11.584;2022-11-21T02:36:00;-1.50;99.90
38209;DHT22;24016;52.102;11.584;2022-11-21T02:38:36;-1.50;99.90
38209;DHT22;24016;52.102;11.584;2022-11-21T02:41:20;-1.50;99.90
38209;DHT22;24016;52.102;11.584;2022-11-21T02:43:58;-1.50;99.90
38209;DHT22;24016;52.102;11.584;2022-11-21T02:46:26;-1.50;99.90
38209;DHT22;24016;52.102;11.584;2022-11-21T02:48:52;-1.50;99.90
38209;DHT22;24016;52.102;11.584;2022-11-21T02:51:19;-1.40;99.90
38209;DHT22;24016;52.102;11.584;2022-11-21T02:53:44;-1.40;99.90
38209;DHT22;24016;52.102;11.584;2022-11-21T02:56:11;-1.40;99.90
38209;DHT22;24016;52.102;11.584;2022-11-21T02:58:36;-1.40;99.90
38209;DHT22;24016;52.102;11.584;2022-11-21T03:01:02;-1.50;99.90
38209;DHT22;24016;52.102;11.584;2022-11-21T03:03:27;-1.40;99.90
38209;DHT22;24016;52.102;11.584;2022-11-21T03:05:53;-1.50;99.90
38209;DHT22;24016;52.102;11.584;2022-11-21T03:08:19;-1.50;99.90
38209;DHT22;24016;52.102;11.584;2022-11-21T03:10:44;-1.50;99.90
38209;DHT22;24016;52.102;11.584;2022-11-21T03:13:10;-1.50;99.90
38209;DHT22;24016;52.102;11.584;2022-11-21T03:15:36;-1.50;99.90
38209;DHT22;24016;52.102;11.584;2022-11-21T03:18:02;-1.50;99.90
38209;DHT22;24016;52.102;11.584;2022-11-21T03:20:29;-1.50;99.90
38209;DHT22;24016;52.102;11.584;2022-11-21T03:22:55;-1.50;99.90
38209;DHT22;24016;52.102;11.584;2022-11-21T03:25:20;-1.60;99.90
38209;DHT22;24016;52.102;11.584;2022-11-21T03:27:49;-1.60;99.90
38209;DHT22;24016;52.102;11.584;2022-11-21T03:30:15;-1.60;99.90
38209;DHT22;24016;52.102;11.584;2022-11-21T03:32:41;-1.60;99.90
38209;DHT22;24016;52.102;11.584;2022-11-21T03:35:06;-1.50;99.90
38209;DHT22;24016;52.102;11.584;2022-11-21T03:37:32;-1.50;99.90
38209;DHT22;24016;52.102;11.584;2022-11-21T03:39:58;-1.60;99.90
38209;DHT22;24016;52.102;11.584;2022-11-21T03:42:23;-1.50;99.90
38209;DHT22;24016;52.102;11.584;2022-11-21T03:44:49;-1.50;99.90
38209;DHT22;24016;52.102;11.584;2022-11-21T03:47:14;-1.50;99.90
38209;DHT22;24016;52.102;11.584;2022-11-21T03:49:40;-1.60;99.90
38209;DHT22;24016;52.102;11.584;2022-11-21T03:52:05;-1.50;99.90
38209;DHT22;24016;52.102;11.584;2022-11-21T03:54:31;-1.60;99.90
38209;DHT22;24016;52.102;11.584;2022-11-21T03:56:56;-1.60;99.90
38209;DHT22;24016;52.102;11.584;2022-11-21T03:59:22;-1.60;99.90
38209;DHT22;24016;52.102;11.584;2022-11-21T04:01:47;-1.60;99.90
38209;DHT22;24016;52.102;11.584;2022-11-21T04:04:13;-1.60;99.90
38209;DHT22;24016;52.102;11.584;2022-11-21T04:06:38;-1.60;99.90
38209;DHT22;24016;52.102;11.584;2022-11-21T04:09:04;-1.60;99.90
38209;DHT22;24016;52.102;11.584;2022-11-21T04:11:29;-1.60;99.90
38209;DHT22;24016;52.102;11.584;2022-11-21T04:13:55;-1.70;99.90
38209;DHT22;24016;52.102;11.584;2022-11-21T04:16:21;-1.60;99.90
38209;DHT22;24016;52.102;11.584;2022-11-21T04:18:46;-1.60;99.90
38209;DHT22;24016;52.102;11.584;2022-11-21T04:21:12;-1.60;99.90
38209;DHT22;24016;52.102;11.584;2022-11-21T04:23:37;-1.60;99.90
38209;DHT22;24016;52.102;11.584;2022-11-21T04:26:03;-1.60;99.90
38209;DHT22;24016;52.102;11.584;2022-11-21T04:28:29;-1.60;99.90
38209;DHT22;24016;52.102;11.584;2022-11-21T04:31:01;-1.60;99.90
38209;DHT22;24016;52.102;11.584;2022-11-21T04:33:26;-1.60;99.90
38209;DHT22;24016;52.102;11.584;2022-11-21T04:35:52;-1.60;99.90
38209;DHT22;24016;52.102;11.584;2022-11-21T04:38:18;-1.60;99.90
38209;DHT22;24016;52.102;11.584;2022-11-21T04:40:43;-1.60;99.90
38209;DHT22;24016;52.102;11.584;2022-11-21T04:43:09;-1.70;99.90
38209;DHT22;24016;52.102;11.584;2022-11-21T04:45:35;-1.70;99.90
38209;DHT22;24016;52.102;11.584;2022-11-21T04:48:00;-1.70;99.90
38209;DHT22;24016;52.102;11.584;2022-11-21T04:50:26;-1.80;99.90
38209;DHT22;24016;52.102;11.584;2022-11-21T04:52:54;-1.70;99.90
38209;DHT22;24016;52.102;11.584;2022-11-21T04:55:22;-1.70;99.90
38209;DHT22;24016;52.102;11.584;2022-11-21T04:57:48;-1.70;99.90
38209;DHT22;24016;52.102;11.584;2022-11-21T05:00:15;-1.70;99.90
38209;DHT22;24016;52.102;11.584;2022-11-21T05:02:41;-1.70;99.90
38209;DHT22;24016;52.102;11.584;2022-11-21T05:05:07;-1.60;99.90
38209;DHT22;24016;52.102;11.584;2022-11-21T05:07:32;-1.60;99.90
38209;DHT22;24016;52.102;11.584;2022-11-21T05:09:58;-1.60;99.90
38209;DHT22;24016;52.102;11.584;2022-11-21T05:12:24;-1.60;99.90
38209;DHT22;24016;52.102;11.584;2022-11-21T05:15:08;-1.60;99.90
38209;DHT22;24016;52.102;11.584;2022-11-21T05:17:34;-1.60;99.90
38209;DHT22;24016;52.102;11.584;2022-11-21T05:20:00;-1.60;99.90
38209;DHT22;24016;52.102;11.584;2022-11-21T05:22:25;-1.60;99.90
38209;DHT22;24016;52.102;11.584;2022-11-21T05:24:51;-1.60;99.90
38209;DHT22;24016;52.102;11.584;2022-11-21T05:27:17;-1.60;99.90
38209;DHT22;24016;52.102;11.584;2022-11-21T05:29:42;-1.60;99.90
38209;DHT22;24016;52.102;11.584;2022-11-21T05:32:08;-1.60;99.90
38209;DHT22;24016;52.102;11.584;2022-11-21T05:34:33;-1.60;99.90
38209;DHT22;24016;52.102;11.584;2022-11-21T05:36:59;-1.60;99.90
38209;DHT22;24016;52.102;11.584;2022-11-21T05:39:25;-1.50;99.90
38209;DHT22;24016;52.102;11.584;2022-11-21T05:41:51;-1.50;99.90
38209;DHT22;24016;52.102;11.584;2022-11-21T05:44:16;-1.50;99.90
38209;DHT22;24016;52.102;11.584;2022-11-21T05:46:42;-1.50;99.90
38209;DHT22;24016;52.102;11.584;2022-11-21T05:49:08;-1.50;99.90
38209;DHT22;24016;52.102;11.584;2022-11-21T05:51:33;-1.50;99.90
38209;DHT22;24016;52.102;11.584;2022-11-21T05:53:59;-1.50;99.90
38209;DHT22;24016;52.102;11.584;2022-11-21T05:56:25;-1.50;99.90
38209;DHT22;24016;52.102;11.584;2022-11-21T05:58:53;-1.50;99.90
38209;DHT22;24016;52.102;11.584;2022-11-21T06:01:18;-1.50;99.90
38209;DHT22;24016;52.102;11.584;2022-11-21T06:04:04;-1.50;99.90
38209;DHT22;24016;52.102;11.584;2022-11-21T06:06:29;-1.50;99.90
38209;DHT22;24016;52.102;11.584;2022-11-21T06:08:55;-1.50;99.90
38209;DHT22;24016;52.102;11.584;2022-11-21T06:11:20;-1.50;99.90
38209;DHT22;24016;52.102;11.584;2022-11-21T06:13:46;-1.50;99.90
38209;DHT22;24016;52.102;11.584;2022-11-21T06:16:14;-1.50;99.90
38209;DHT22;24016;52.102;11.584;2022-11-21T06:18:41;-1.50;99.90
38209;DHT22;24016;52.102;11.584;2022-11-21T06:21:15;-1.50;99.90
38209;DHT22;24016;52.102;11.584;2022-11-21T06:23:41;-1.50;99.90
38209;DHT22;24016;52.102;11.584;2022-11-21T06:26:10;-1.60;99.90
38209;DHT22;24016;52.102;11.584;2022-11-21T06:28:38;-1.60;99.90
38209;DHT22;24016;52.102;11.584;2022-11-21T06:31:04;-1.60;99.90
38209;DHT22;24016;52.102;11.584;2022-11-21T06:33:30;-1.70;99.90
38209;DHT22;24016;52.102;11.584;2022-11-21T06:35:56;-1.70;99.90
38209;DHT22;24016;52.102;11.584;2022-11-21T06:38:21;-1.70;99.90
38209;DHT22;24016;52.102;11.584;2022-11-21T06:40:47;-1.80;99.90
38209;DHT22;24016;52.102;11.584;2022-11-21T06:43:12;-1.90;99.90
38209;DHT22;24016;52.102;11.584;2022-11-21T06:45:38;-1.90;99.90
38209;DHT22;24016;52.102;11.584;2022-11-21T06:48:03;-2.00;99.90
38209;DHT22;24016;52.102;11.584;2022-11-21T06:50:31;-2.10;99.90
38209;DHT22;24016;52.102;11.584;2022-11-21T06:52:57;-2.20;99.90
38209;DHT22;24016;52.102;11.584;2022-11-21T06:55:23;-2.20;99.90
38209;DHT22;24016;52.102;11.584;2022-11-21T06:57:49;-2.30;99.90
38209;DHT22;24016;52.102;11.584;2022-11-21T07:00:15;-2.40;99.90
38209;DHT22;24016;52.102;11.584;2022-11-21T07:02:41;-2.40;99.90
38209;DHT22;24016;52.102;11.584;2022-11-21T07:05:07;-2.50;99.90
38209;DHT22;24016;52.102;11.584;2022-11-21T07:07:32;-2.50;99.90
38209;DHT22;24016;52.102;11.584;2022-11-21T07:09:58;-2.50;99.90
38209;DHT22;24016;52.102;11.584;2022-11-21T07:12:23;-2.50;99.90
38209;DHT22;24016;52.102;11.584;2022-11-21T07:15:08;-2.60;99.90
38209;DHT22;24016;52.102;11.584;2022-11-21T07:17:34;-2.60;99.90
38209;DHT22;24016;52.102;11.584;2022-11-21T07:19:59;-2.60;99.90
38209;DHT22;24016;52.102;11.584;2022-11-21T07:22:25;-2.60;99.90
38209;DHT22;24016;52.102;11.584;2022-11-21T07:24:50;-2.60;99.90
38209;DHT22;24016;52.102;11.584;2022-11-21T07:27:16;-2.50;99.90
38209;DHT22;24016;52.102;11.584;2022-11-21T07:29:42;-2.50;99.90
38209;DHT22;24016;52.102;11.584;2022-11-21T07:32:07;-2.50;99.90
38209;DHT22;24016;52.102;11.584;2022-11-21T07:34:33;-2.40;99.90
38209;DHT22;24016;52.102;11.584;2022-11-21T07:36:58;-2.40;99.90
38209;DHT22;24016;52.102;11.584;2022-11-21T07:39:24;-2.30;99.90
38209;DHT22;24016;52.102;11.584;2022-11-21T07:41:49;-2.20;99.90
38209;DHT22;24016;52.102;11.584;2022-11-21T07:44:15;-2.10;99.90
38209;DHT22;24016;52.102;11.584;2022-11-21T07:46:40;-2.00;99.90
38209;DHT22;24016;52.102;11.584;2022-11-21T07:49:06;-2.00;99.90
38209;DHT22;24016;52.102;11.584;2022-11-21T07:51:32;-1.90;99.90
38209;DHT22;24016;52.102;11.584;2022-11-21T07:53:57;-1.90;99.90
38209;DHT22;24016;52.102;11.584;2022-11-21T07:56:23;-1.90;99.90
38209;DHT22;24016;52.102;11.584;2022-11-21T07:58:51;-1.90;99.90
38209;DHT22;24016;52.102;11.584;2022-11-21T08:01:17;-1.80;99.90
38209;DHT22;24016;52.102;11.584;2022-11-21T08:03:42;-1.80;99.90
38209;DHT22;24016;52.102;11.584;2022-11-21T08:06:10;-1.70;99.90
38209;DHT22;24016;52.102;11.584;2022-11-21T08:08:36;-1.70;99.90
38209;DHT22;24016;52.102;11.584;2022-11-21T08:11:05;-1.70;99.90
38209;DHT22;24016;52.102;11.584;2022-11-21T08:13:32;-1.60;99.90
38209;DHT22;24016;52.102;11.584;2022-11-21T08:15:58;-1.50;99.90
38209;DHT22;24016;52.102;11.584;2022-11-21T08:18:23;-1.40;99.90
38209;DHT22;24016;52.102;11.584;2022-11-21T08:20:49;-1.30;99.90
38209;DHT22;24016;52.102;11.584;2022-11-21T08:23:15;-1.20;99.90
38209;DHT22;24016;52.102;11.584;2022-11-21T08:25:41;-1.20;99.90
38209;DHT22;24016;52.102;11.584;2022-11-21T08:28:08;-1.10;99.90
38209;DHT22;24016;52.102;11.584;2022-11-21T08:30:35;-1.10;99.90
38209;DHT22;24016;52.102;11.584;2022-11-21T08:33:01;-1.00;99.90
38209;DHT22;24016;52.102;11.584;2022-11-21T08:35:29;-1.00;99.90
38209;DHT22;24016;52.102;11.584;2022-11-21T08:37:59;-0.90;99.90
38209;DHT22;24016;52.102;11.584;2022-11-21T08:40:26;-0.80;99.90
38209;DHT22;24016;52.102;11.584;2022-11-21T08:43:08;-0.70;99.90
38209;DHT22;24016;52.102;11.584;2022-11-21T08:45:35;-0.70;99.90
38209;DHT22;24016;52.102;11.584;2022-11-21T08:48:01;-0.60;99.90
38209;DHT22;24016;52.102;11.584;2022-11-21T08:50:26;-0.70;99.90
38209;DHT22;24016;52.102;11.584;2022-11-21T08:52:59;-0.70;99.90
38209;DHT22;24016;52.102;11.584;2022-11-21T08:55:26;-0.70;99.90
38209;DHT22;24016;52.102;11.584;2022-11-21T08:57:52;-0.70;99.90
38209;DHT22;24016;52.102;11.584;2022-11-21T09:00:18;-0.60;99.90
38209;DHT22;24016;52.102;11.584;2022-11-21T09:02:43;-0.60;99.90
38209;DHT22;24016;52.102;11.584;2022-11-21T09:05:09;-0.50;99.90
38209;DHT22;24016;52.102;11.584;2022-11-21T09:07:35;-0.50;99.90
38209;DHT22;24016;52.102;11.584;2022-11-21T09:10:01;-0.50;99.90
38209;DHT22;24016;52.102;11.584;2022-11-21T09:12:26;-0.50;99.90
38209;DHT22;24016;52.102;11.584;2022-11-21T09:14:52;-0.50;99.90
38209;DHT22;24016;52.102;11.584;2022-11-21T09:17:37;-0.40;99.90
38209;DHT22;24016;52.102;11.584;2022-11-21T09:20:21;-0.30;99.90
38209;DHT22;24016;52.102;11.584;2022-11-21T09:22:46;0.00;99.90
38209;DHT22;24016;52.102;11.584;2022-11-21T09:25:12;0.00;99.90
38209;DHT22;24016;52.102;11.584;2022-11-21T09:27:37;0.20;99.90
38209;DHT22;24016;52.102;11.584;2022-11-21T09:30:03;0.30;99.90
38209;DHT22;24016;52.102;11.584;2022-11-21T09:32:29;0.40;99.90
38209;DHT22;24016;52.102;11.584;2022-11-21T09:34:55;0.50;99.90
38209;DHT22;24016;52.102;11.584;2022-11-21T09:37:20;0.80;99.90
38209;DHT22;24016;52.102;11.584;2022-11-21T09:39:46;1.00;99.90
38209;DHT22;24016;52.102;11.584;2022-11-21T09:42:56;0.40;99.90
38209;DHT22;24016;52.102;11.584;2022-11-21T09:45:22;0.60;99.90
38209;DHT22;24016;52.102;11.584;2022-11-21T09:47:51;0.90;99.90
38209;DHT22;24016;52.102;11.584;2022-11-21T09:50:35;1.40;99.90
38209;DHT22;24016;52.102;11.584;2022-11-21T09:55:45;1.20;99.90
38209;DHT22;24016;52.102;11.584;2022-11-21T09:58:36;1.10;99.90
38209;DHT22;24016;52.102;11.584;2022-11-21T10:01:04;1.30;99.90
38209;DHT22;24016;52.102;11.584;2022-11-21T10:03:33;1.00;99.90
38209;DHT22;24016;52.102;11.584;2022-11-21T10:06:17;0.40;99.90
38209;DHT22;24016;52.102;11.584;2022-11-21T10:09:06;0.00;99.90
38209;DHT22;24016;52.102;11.584;2022-11-21T10:14:39;-0.10;99.90
38209;DHT22;24016;52.102;11.584;2022-11-21T10:20:21;0.30;99.90
38209;DHT22;24016;52.102;11.584;2022-11-21T10:23:21;0.50;99.90
38209;DHT22;24016;52.102;11.584;2022-11-21T10:25:56;0.80;99.90
38209;DHT22;24016;52.102;11.584;2022-11-21T10:29:23;0.30;99.90
38209;DHT22;24016;52.102;11.584;2022-11-21T10:31:40;0.40;99.90
38209;DHT22;24016;52.102;11.584;2022-11-21T10:34:13;0.40;99.90
38209;DHT22;24016;52.102;11.584;2022-11-21T10:36:42;0.40;99.90
38209;DHT22;24016;52.102;11.584;2022-11-21T10:39:21;0.60;99.90
38209;DHT22;24016;52.102;11.584;2022-11-21T10:42:00;0.50;99.90
38209;DHT22;24016;52.102;11.584;2022-11-21T10:44:28;0.80;99.90
38209;DHT22;24016;52.102;11.584;2022-11-21T10:47:24;0.80;99.90
38209;DHT22;24016;52.102;11.584;2022-11-21T10:50:03;0.80;99.90
38209;DHT22;24016;52.102;11.584;2022-11-21T10:52:33;0.70;99.90
38209;DHT22;24016;52.102;11.584;2022-11-21T10:57:31;1.00;99.90
38209;DHT22;24016;52.102;11.584;2022-11-21T11:05:24;1.10;99.90
38209;DHT22;24016;52.102;11.584;2022-11-21T11:08:09;1.20;99.90
38209;DHT22;24016;52.102;11.584;2022-11-21T11:13:24;1.90;99.90
38209;DHT22;24016;52.102;11.584;2022-11-21T11:16:04;2.40;99.90
38209;DHT22;24016;52.102;11.584;2022-11-21T11:18:31;2.50;99.90
38209;DHT22;24016;52.102;11.584;2022-11-21T11:21:15;2.40;99.90
38209;DHT22;24016;52.102;11.584;2022-11-21T11:23:41;3.00;99.90
38209;DHT22;24016;52.102;11.584;2022-11-21T11:26:27;3.10;99.90
38209;DHT22;24016;52.102;11.584;2022-11-21T11:29:07;3.60;99.90
38209;DHT22;24016;52.102;11.584;2022-11-21T11:31:43;3.40;99.90
38209;DHT22;24016;52.102;11.584;2022-11-21T11:34:14;3.00;99.90
38209;DHT22;24016;52.102;11.584;2022-11-21T11:36:53;2.70;99.90
38209;DHT22;24016;52.102;11.584;2022-11-21T11:45:30;3.10;99.90
38209;DHT22;24016;52.102;11.584;2022-11-21T11:48:18;3.20;99.90
38209;DHT22;24016;52.102;11.584;2022-11-21T11:53:37;2.80;99.90
38209;DHT22;24016;52.102;11.584;2022-11-21T11:56:19;2.40;99.90
38209;DHT22;24016;52.102;11.584;2022-11-21T12:01:22;2.40;99.90
38209;DHT22;24016;52.102;11.584;2022-11-21T12:04:18;3.30;99.90
38209;DHT22;24016;52.102;11.584;2022-11-21T12:07:13;4.00;99.90
38209;DHT22;24016;52.102;11.584;2022-11-21T12:10:04;4.10;99.90
38209;DHT22;24016;52.102;11.584;2022-11-21T12:12:40;3.80;99.90
38209;DHT22;24016;52.102;11.584;2022-11-21T12:18:15;4.00;99.90
38209;DHT22;24016;52.102;11.584;2022-11-21T12:37:33;4.30;99.90
38209;DHT22;24016;52.102;11.584;2022-11-21T12:45:34;2.90;99.90
38209;DHT22;24016;52.102;11.584;2022-11-21T12:48:07;3.00;99.90
38209;DHT22;24016;52.102;11.584;2022-11-21T13:02:42;2.00;99.90
38209;DHT22;24016;52.102;11.584;2022-11-21T13:05:15;2.10;99.90
38209;DHT22;24016;52.102;11.584;2022-11-21T13:07:41;2.00;99.90
38209;DHT22;24016;52.102;11.584;2022-11-21T13:10:13;1.90;99.90
38209;DHT22;24016;52.102;11.584;2022-11-21T13:12:47;1.70;99.90
38209;DHT22;24016;52.102;11.584;2022-11-21T13:15:33;1.60;99.90
38209;DHT22;24016;52.102;11.584;2022-11-21T13:20:39;1.30;99.90
38209;DHT22;24016;52.102;11.584;2022-11-21T13:25:54;1.10;99.90
38209;DHT22;24016;52.102;11.584;2022-11-21T13:30:46;1.00;99.90
38209;DHT22;24016;52.102;11.584;2022-11-21T13:36:07;1.10;99.90
38209;DHT22;24016;52.102;11.584;2022-11-21T13:44:39;1.10;99.90
38209;DHT22;24016;52.102;11.584;2022-11-21T13:58:34;0.70;99.90
38209;DHT22;24016;52.102;11.584;2022-11-21T14:01:06;0.60;99.90
38209;DHT22;24016;52.102;11.584;2022-11-21T14:06:19;0.60;99.90
38209;DHT22;24016;52.102;11.584;2022-11-21T14:09:17;0.50;99.90
38209;DHT22;24016;52.102;11.584;2022-11-21T14:11:49;0.60;99.90
38209;DHT22;24016;52.102;11.584;2022-11-21T14:14:29;0.60;99.90
38209;DHT22;24016;52.102;11.584;2022-11-21T14:22:55;0.50;99.90
38209;DHT22;24016;52.102;11.584;2022-11-21T14:25:33;0.40;99.90
38209;DHT22;24016;52.102;11.584;2022-11-21T14:28:00;0.30;99.90
38209;DHT22;24016;52.102;11.584;2022-11-21T14:30:31;0.20;99.90
38209;DHT22;24016;52.102;11.584;2022-11-21T14:33:31;0.10;99.90
38209;DHT22;24016;52.102;11.584;2022-11-21T14:38:57;0.00;99.90
38209;DHT22;24016;52.102;11.584;2022-11-21T14:46:22;-0.10;99.90
38209;DHT22;24016;52.102;11.584;2022-11-21T14:48:48;-0.20;99.90
38209;DHT22;24016;52.102;11.584;2022-11-21T14:51:15;-0.20;99.90
38209;DHT22;24016;52.102;11.584;2022-11-21T14:53:42;-0.30;99.90
38209;DHT22;24016;52.102;11.584;2022-11-21T14:56:20;-0.30;99.90
38209;DHT22;24016;52.102;11.584;2022-11-21T14:58:47;-0.40;99.90
38209;DHT22;24016;52.102;11.584;2022-11-21T15:01:38;-0.40;99.90
38209;DHT22;24016;52.102;11.584;2022-11-21T15:04:07;-0.40;99.90
38209;DHT22;24016;52.102;11.584;2022-11-21T15:06:43;-0.50;99.90
38209;DHT22;24016;52.102;11.584;2022-11-21T15:09:12;-0.50;99.90
38209;DHT22;24016;52.102;11.584;2022-11-21T15:12:00;-0.50;99.90
38209;DHT22;24016;52.102;11.584;2022-11-21T15:14:32;-0.60;99.90
38209;DHT22;24016;52.102;11.584;2022-11-21T15:17:00;-0.60;99.90
38209;DHT22;24016;52.102;11.584;2022-11-21T15:19:29;-0.70;99.90
38209;DHT22;24016;52.102;11.584;2022-11-21T15:21:57;-0.70;99.90
38209;DHT22;24016;52.102;11.584;2022-11-21T15:24:33;-0.80;99.90
38209;DHT22;24016;52.102;11.584;2022-11-21T15:30:06;-0.90;99.90
38209;DHT22;24016;52.102;11.584;2022-11-21T15:32:31;-0.90;99.90
38209;DHT22;24016;52.102;11.584;2022-11-21T15:34:57;-1.00;99.90
38209;DHT22;24016;52.102;11.584;2022-11-21T15:37:23;-1.00;99.90
38209;DHT22;24016;52.102;11.584;2022-11-21T15:39:50;-1.00;99.90
38209;DHT22;24016;52.102;11.584;2022-11-21T15:47:39;-1.00;99.90
38209;DHT22;24016;52.102;11.584;2022-11-21T15:50:05;-1.00;99.90
38209;DHT22;24016;52.102;11.584;2022-11-21T15:52:30;-1.00;99.90
38209;DHT22;24016;52.102;11.584;2022-11-21T15:54:56;-1.00;99.90
38209;DHT22;24016;52.102;11.584;2022-11-21T15:57:22;-1.10;99.90
38209;DHT22;24016;52.102;11.584;2022-11-21T15:59:47;-1.10;99.90
38209;DHT22;24016;52.102;11.584;2022-11-21T16:02:14;-1.10;99.90
38209;DHT22;24016;52.102;11.584;2022-11-21T16:04:40;-1.10;99.90
38209;DHT22;24016;52.102;11.584;2022-11-21T16:07:05;-1.10;99.90
38209;DHT22;24016;52.102;11.584;2022-11-21T16:09:31;-1.10;99.90
38209;DHT22;24016;52.102;11.584;2022-11-21T16:11:57;-1.10;99.90
38209;DHT22;24016;52.102;11.584;2022-11-21T16:14:22;-1.10;99.90
38209;DHT22;24016;52.102;11.584;2022-11-21T16:16:48;-1.20;99.90
38209;DHT22;24016;52.102;11.584;2022-11-21T16:19:14;-1.20;99.90
38209;DHT22;24016;52.102;11.584;2022-11-21T16:21:40;-1.20;99.90
38209;DHT22;24016;52.102;11.584;2022-11-21T16:24:06;-1.20;99.90
38209;DHT22;24016;52.102;11.584;2022-11-21T16:26:32;-1.20;99.90
38209;DHT22;24016;52.102;11.584;2022-11-21T16:28:59;-1.20;99.90
38209;DHT22;24016;52.102;11.584;2022-11-21T16:31:28;-1.20;99.90
38209;DHT22;24016;52.102;11.584;2022-11-21T16:33:53;-1.20;99.90
38209;DHT22;24016;52.102;11.584;2022-11-21T16:36:25;-1.20;99.90
38209;DHT22;24016;52.102;11.584;2022-11-21T16:38:50;-1.20;99.90
38209;DHT22;24016;52.102;11.584;2022-11-21T16:41:18;-1.20;99.90
38209;DHT22;24016;52.102;11.584;2022-11-21T16:43:46;-1.20;99.90
38209;DHT22;24016;52.102;11.584;2022-11-21T16:46:13;-1.20;99.90
38209;DHT22;24016;52.102;11.584;2022-11-21T16:48:38;-1.20;99.90
38209;DHT22;24016;52.102;11.584;2022-11-21T16:51:12;-1.20;99.90
38209;DHT22;24016;52.102;11.584;2022-11-21T16:53:40;-1.20;99.90
38209;DHT22;24016;52.102;11.584;2022-11-21T16:56:06;-1.20;99.90
38209;DHT22;24016;52.102;11.584;2022-11-21T16:58:32;-1.20;99.90
38209;DHT22;24016;52.102;11.584;2022-11-21T17:01:05;-1.20;99.90
38209;DHT22;24016;52.102;11.584;2022-11-21T17:03:30;-1.20;99.90
38209;DHT22;24016;52.102;11.584;2022-11-21T17:05:57;-1.20;99.90
38209;DHT22;24016;52.102;11.584;2022-11-21T17:08:23;-1.20;99.90
38209;DHT22;24016;52.102;11.584;2022-11-21T17:10:48;-1.20;99.90
38209;DHT22;24016;52.102;11.584;2022-11-21T17:13:14;-1.20;99.90
38209;DHT22;24016;52.102;11.584;2022-11-21T17:15:39;-1.20;99.90
38209;DHT22;24016;52.102;11.584;2022-11-21T17:18:05;-1.20;99.90
38209;DHT22;24016;52.102;11.584;2022-11-21T17:20:30;-1.30;99.90
38209;DHT22;24016;52.102;11.584;2022-11-21T17:22:56;-1.20;99.90
38209;DHT22;24016;52.102;11.584;2022-11-21T17:25:22;-1.20;99.90
38209;DHT22;24016;52.102;11.584;2022-11-21T17:27:47;-1.30;99.90
38209;DHT22;24016;52.102;11.584;2022-11-21T17:30:13;-1.30;99.90
38209;DHT22;24016;52.102;11.584;2022-11-21T17:32:40;-1.30;99.90
38209;DHT22;24016;52.102;11.584;2022-11-21T17:35:06;-1.30;99.90
38209;DHT22;24016;52.102;11.584;2022-11-21T17:37:32;-1.40;99.90
38209;DHT22;24016;52.102;11.584;2022-11-21T17:39:57;-1.40;99.90
38209;DHT22;24016;52.102;11.584;2022-11-21T17:42:23;-1.40;99.90